sensor_id;sensor_type;location;lat;lon;timestamp;P1;durP1;ratioP1;P2;durP2;ratioP2
26335;SDS011;14047;50.936;4.654;2023-06-10T00:01:45;11.07;;;7.15;;
26335;SDS011;14047;50.936;4.654;2023-06-10T00:04:14;14.60;;;7.45;;
26335;SDS011;14047;50.936;4.654;2023-06-10T00:06:43;15.50;;;7.00;;
26335;SDS011;14047;50.936;4.654;2023-06-10T00:09:09;13.77;;;6.95;;
26335;SDS011;14047;50.936;4.654;2023-06-10T00:11:39;11.13;;;6.85;;
26335;SDS011;14047;50.936;4.654;2023-06-10T00:14:06;8.77;;;6.93;;
26335;SDS011;14047;50.936;4.654;2023-06-10T00:16:32;12.32;;;7.00;;
26335;SDS011;14047;50.936;4.654;2023-06-10T00:18:59;9.13;;;7.50;;
26335;SDS011;14047;50.936;4.654;2023-06-10T00:21:33;13.60;;;7.00;;
26335;SDS011;14047;50.936;4.654;2023-06-10T00:24:06;8.40;;;7.50;;
26335;SDS011;14047;50.936;4.654;2023-06-10T00:26:35;10.35;;;7.32;;
26335;SDS011;14047;50.936;4.654;2023-06-10T00:29:00;8.35;;;7.30;;
26335;SDS011;14047;50.936;4.654;2023-06-10T00:31:27;11.77;;;7.45;;
26335;SDS011;14047;50.936;4.654;2023-06-10T00:33:53;12.40;;;7.82;;
26335;SDS011;14047;50.936;4.654;2023-06-10T00:36:19;8.18;;;7.03;;
26335;SDS011;14047;50.936;4.654;2023-06-10T00:38:46;9.10;;;7.15;;
26335;SDS011;14047;50.936;4.654;2023-06-10T00:41:12;11.30;;;8.52;;
26335;SDS011;14047;50.936;4.654;2023-06-10T00:43:38;10.80;;;7.15;;
26335;SDS011;14047;50.936;4.654;2023-06-10T00:46:04;8.13;;;7.32;;
26335;SDS011;14047;50.936;4.654;2023-06-10T00:48:30;9.60;;;7.75;;
26335;SDS011;14047;50.936;4.654;2023-06-10T00:50:57;10.35;;;7.25;;
26335;SDS011;14047;50.936;4.654;2023-06-10T00:53:23;9.55;;;7.43;;
26335;SDS011;14047;50.936;4.654;2023-06-10T00:55:50;12.05;;;7.32;;
26335;SDS011;14047;50.936;4.654;2023-06-10T00:58:16;8.43;;;7.53;;
26335;SDS011;14047;50.936;4.654;2023-06-10T01:00:42;9.23;;;8.13;;
26335;SDS011;14047;50.936;4.654;2023-06-10T01:03:10;13.15;;;7.75;;
26335;SDS011;14047;50.936;4.654;2023-06-10T01:05:37;11.48;;;7.78;;
26335;SDS011;14047;50.936;4.654;2023-06-10T01:08:20;8.38;;;7.47;;
26335;SDS011;14047;50.936;4.654;2023-06-10T01:10:55;9.13;;;7.60;;
26335;SDS011;14047;50.936;4.654;2023-06-10T01:13:24;10.20;;;7.40;;
26335;SDS011;14047;50.936;4.654;2023-06-10T01:15:57;12.15;;;7.20;;
26335;SDS011;14047;50.936;4.654;2023-06-10T01:18:29;13.02;;;8.27;;
26335;SDS011;14047;50.936;4.654;2023-06-10T01:20:57;12.70;;;8.40;;
26335;SDS011;14047;50.936;4.654;2023-06-10T01:23:23;11.30;;;7.32;;
26335;SDS011;14047;50.936;4.654;2023-06-10T01:28:52;10.75;;;8.35;;
26335;SDS011;14047;50.936;4.654;2023-06-10T01:31:48;12.43;;;8.73;;
26335;SDS011;14047;50.936;4.654;2023-06-10T01:34:19;9.98;;;8.35;;
26335;SDS011;14047;50.936;4.654;2023-06-10T01:36:49;9.85;;;7.90;;
26335;SDS011;14047;50.936;4.654;2023-06-10T01:39:16;15.00;;;8.50;;
26335;SDS011;14047;50.936;4.654;2023-06-10T01:41:46;10.18;;;8.45;;
26335;SDS011;14047;50.936;4.654;2023-06-10T01:44:20;10.57;;;8.55;;
26335;SDS011;14047;50.936;4.654;2023-06-10T01:46:46;13.82;;;8.70;;
26335;SDS011;14047;50.936;4.654;2023-06-10T01:49:12;9.68;;;8.68;;
26335;SDS011;14047;50.936;4.654;2023-06-10T01:51:38;9.73;;;8.70;;
26335;SDS011;14047;50.936;4.654;2023-06-10T01:54:06;10.80;;;8.88;;
26335;SDS011;14047;50.936;4.654;2023-06-10T01:56:32;11.38;;;9.38;;
26335;SDS011;14047;50.936;4.654;2023-06-10T01:58:58;13.25;;;9.27;;
26335;SDS011;14047;50.936;4.654;2023-06-10T02:01:25;12.57;;;9.35;;
26335;SDS011;14047;50.936;4.654;2023-06-10T02:03:51;10.93;;;9.40;;
26335;SDS011;14047;50.936;4.654;2023-06-10T02:06:17;15.50;;;10.27;;
26335;SDS011;14047;50.936;4.654;2023-06-10T02:08:43;15.07;;;9.38;;
26335;SDS011;14047;50.936;4.654;2023-06-10T02:11:09;13.15;;;9.25;;
26335;SDS011;14047;50.936;4.654;2023-06-10T02:13:35;12.05;;;9.90;;
26335;SDS011;14047;50.936;4.654;2023-06-10T02:16:01;13.45;;;9.50;;
26335;SDS011;14047;50.936;4.654;2023-06-10T02:18:28;13.60;;;9.93;;
26335;SDS011;14047;50.936;4.654;2023-06-10T02:20:54;16.35;;;10.23;;
26335;SDS011;14047;50.936;4.654;2023-06-10T02:23:21;15.07;;;10.75;;
26335;SDS011;14047;50.936;4.654;2023-06-10T02:25:47;12.38;;;10.30;;
26335;SDS011;14047;50.936;4.654;2023-06-10T02:28:13;12.02;;;10.30;;
26335;SDS011;14047;50.936;4.654;2023-06-10T02:30:40;11.75;;;9.20;;
26335;SDS011;14047;50.936;4.654;2023-06-10T02:33:07;12.68;;;10.30;;
26335;SDS011;14047;50.936;4.654;2023-06-10T02:35:37;12.75;;;10.02;;
26335;SDS011;14047;50.936;4.654;2023-06-10T02:38:04;13.88;;;10.02;;
26335;SDS011;14047;50.936;4.654;2023-06-10T02:40:32;14.68;;;10.07;;
26335;SDS011;14047;50.936;4.654;2023-06-10T02:42:58;11.63;;;9.90;;
26335;SDS011;14047;50.936;4.654;2023-06-10T02:45:24;13.07;;;10.55;;
26335;SDS011;14047;50.936;4.654;2023-06-10T02:47:51;15.80;;;10.73;;
26335;SDS011;14047;50.936;4.654;2023-06-10T02:50:18;13.15;;;11.13;;
26335;SDS011;14047;50.936;4.654;2023-06-10T02:53:04;13.02;;;10.07;;
26335;SDS011;14047;50.936;4.654;2023-06-10T02:55:32;19.42;;;11.00;;
26335;SDS011;14047;50.936;4.654;2023-06-10T02:58:01;12.93;;;9.82;;
26335;SDS011;14047;50.936;4.654;2023-06-10T03:00:29;12.45;;;10.27;;
26335;SDS011;14047;50.936;4.654;2023-06-10T03:02:55;14.18;;;10.60;;
26335;SDS011;14047;50.936;4.654;2023-06-10T03:05:26;10.77;;;9.68;;
26335;SDS011;14047;50.936;4.654;2023-06-10T03:07:54;12.23;;;10.55;;
26335;SDS011;14047;50.936;4.654;2023-06-10T03:10:21;13.68;;;11.80;;
26335;SDS011;14047;50.936;4.654;2023-06-10T03:12:47;13.48;;;10.35;;
26335;SDS011;14047;50.936;4.654;2023-06-10T03:15:13;14.38;;;11.60;;
26335;SDS011;14047;50.936;4.654;2023-06-10T03:17:41;15.93;;;11.07;;
26335;SDS011;14047;50.936;4.654;2023-06-10T03:20:07;17.52;;;11.23;;
26335;SDS011;14047;50.936;4.654;2023-06-10T03:22:36;14.77;;;11.32;;
26335;SDS011;14047;50.936;4.654;2023-06-10T03:25:07;12.77;;;10.85;;
26335;SDS011;14047;50.936;4.654;2023-06-10T03:27:41;16.35;;;11.43;;
26335;SDS011;14047;50.936;4.654;2023-06-10T03:30:08;15.85;;;11.20;;
26335;SDS011;14047;50.936;4.654;2023-06-10T03:32:36;13.05;;;10.63;;
26335;SDS011;14047;50.936;4.654;2023-06-10T03:35:02;18.52;;;10.90;;
26335;SDS011;14047;50.936;4.654;2023-06-10T03:37:30;17.35;;;10.85;;
26335;SDS011;14047;50.936;4.654;2023-06-10T03:39:56;12.15;;;9.80;;
26335;SDS011;14047;50.936;4.654;2023-06-10T03:42:22;12.40;;;10.75;;
26335;SDS011;14047;50.936;4.654;2023-06-10T03:44:48;11.57;;;10.38;;
26335;SDS011;14047;50.936;4.654;2023-06-10T03:47:14;13.10;;;11.25;;
26335;SDS011;14047;50.936;4.654;2023-06-10T03:49:41;14.45;;;10.82;;
26335;SDS011;14047;50.936;4.654;2023-06-10T03:52:08;13.90;;;10.55;;
26335;SDS011;14047;50.936;4.654;2023-06-10T03:54:34;12.25;;;10.65;;
26335;SDS011;14047;50.936;4.654;2023-06-10T03:57:00;12.40;;;10.75;;
26335;SDS011;14047;50.936;4.654;2023-06-10T03:59:26;14.63;;;11.35;;
26335;SDS011;14047;50.936;4.654;2023-06-10T04:01:52;18.10;;;11.10;;
26335;SDS011;14047;50.936;4.654;2023-06-10T04:04:18;14.38;;;11.00;;
26335;SDS011;14047;50.936;4.654;2023-06-10T04:06:45;13.55;;;11.45;;
26335;SDS011;14047;50.936;4.654;2023-06-10T04:09:11;15.30;;;9.90;;
26335;SDS011;14047;50.936;4.654;2023-06-10T04:11:38;15.20;;;11.68;;
26335;SDS011;14047;50.936;4.654;2023-06-10T04:14:04;13.32;;;11.15;;
26335;SDS011;14047;50.936;4.654;2023-06-10T04:16:31;13.90;;;11.05;;
26335;SDS011;14047;50.936;4.654;2023-06-10T04:18:59;19.13;;;11.55;;
26335;SDS011;14047;50.936;4.654;2023-06-10T04:21:28;17.00;;;12.05;;
26335;SDS011;14047;50.936;4.654;2023-06-10T04:23:54;15.40;;;12.02;;
26335;SDS011;14047;50.936;4.654;2023-06-10T04:26:20;19.05;;;11.65;;
26335;SDS011;14047;50.936;4.654;2023-06-10T04:28:47;14.23;;;11.68;;
26335;SDS011;14047;50.936;4.654;2023-06-10T04:31:13;14.73;;;11.05;;
26335;SDS011;14047;50.936;4.654;2023-06-10T04:33:40;13.90;;;12.40;;
26335;SDS011;14047;50.936;4.654;2023-06-10T04:36:06;15.98;;;12.02;;
26335;SDS011;14047;50.936;4.654;2023-06-10T04:38:32;14.25;;;12.15;;
26335;SDS011;14047;50.936;4.654;2023-06-10T04:40:59;16.15;;;12.32;;
26335;SDS011;14047;50.936;4.654;2023-06-10T04:43:28;15.43;;;12.98;;
26335;SDS011;14047;50.936;4.654;2023-06-10T04:45:56;14.82;;;12.48;;
26335;SDS011;14047;50.936;4.654;2023-06-10T04:48:25;12.43;;;11.02;;
26335;SDS011;14047;50.936;4.654;2023-06-10T04:50:52;12.85;;;11.52;;
26335;SDS011;14047;50.936;4.654;2023-06-10T04:53:18;13.50;;;11.40;;
26335;SDS011;14047;50.936;4.654;2023-06-10T04:55:45;14.63;;;11.15;;
26335;SDS011;14047;50.936;4.654;2023-06-10T04:58:11;14.55;;;11.02;;
26335;SDS011;14047;50.936;4.654;2023-06-10T05:00:37;17.83;;;11.07;;
26335;SDS011;14047;50.936;4.654;2023-06-10T05:03:03;16.48;;;10.85;;
26335;SDS011;14047;50.936;4.654;2023-06-10T05:05:29;15.52;;;10.65;;
26335;SDS011;14047;50.936;4.654;2023-06-10T05:07:55;13.90;;;12.15;;
26335;SDS011;14047;50.936;4.654;2023-06-10T05:10:21;15.75;;;12.85;;
26335;SDS011;14047;50.936;4.654;2023-06-10T05:12:47;16.23;;;14.13;;
26335;SDS011;14047;50.936;4.654;2023-06-10T05:15:13;18.08;;;14.23;;
26335;SDS011;14047;50.936;4.654;2023-06-10T05:17:39;20.60;;;14.07;;
26335;SDS011;14047;50.936;4.654;2023-06-10T05:20:05;16.70;;;13.27;;
26335;SDS011;14047;50.936;4.654;2023-06-10T05:22:31;14.85;;;11.80;;
26335;SDS011;14047;50.936;4.654;2023-06-10T05:24:57;16.15;;;11.68;;
26335;SDS011;14047;50.936;4.654;2023-06-10T05:27:23;15.30;;;11.18;;
26335;SDS011;14047;50.936;4.654;2023-06-10T05:29:49;17.63;;;11.90;;
26335;SDS011;14047;50.936;4.654;2023-06-10T05:32:17;17.58;;;10.60;;
26335;SDS011;14047;50.936;4.654;2023-06-10T05:34:43;15.85;;;11.80;;
26335;SDS011;14047;50.936;4.654;2023-06-10T05:37:09;14.57;;;11.75;;
26335;SDS011;14047;50.936;4.654;2023-06-10T05:39:35;15.70;;;10.93;;
26335;SDS011;14047;50.936;4.654;2023-06-10T05:42:06;15.88;;;11.18;;
26335;SDS011;14047;50.936;4.654;2023-06-10T05:44:32;20.95;;;10.95;;
26335;SDS011;14047;50.936;4.654;2023-06-10T05:46:58;17.63;;;10.88;;
26335;SDS011;14047;50.936;4.654;2023-06-10T05:49:24;15.13;;;10.25;;
26335;SDS011;14047;50.936;4.654;2023-06-10T05:51:50;19.42;;;10.90;;
26335;SDS011;14047;50.936;4.654;2023-06-10T05:54:18;14.52;;;10.50;;
26335;SDS011;14047;50.936;4.654;2023-06-10T05:56:44;15.95;;;10.85;;
26335;SDS011;14047;50.936;4.654;2023-06-10T05:59:10;14.70;;;10.32;;
26335;SDS011;14047;50.936;4.654;2023-06-10T06:01:36;16.75;;;10.73;;
26335;SDS011;14047;50.936;4.654;2023-06-10T06:04:02;13.63;;;10.77;;
26335;SDS011;14047;50.936;4.654;2023-06-10T06:06:28;14.00;;;10.40;;
26335;SDS011;14047;50.936;4.654;2023-06-10T06:08:54;15.13;;;11.18;;
26335;SDS011;14047;50.936;4.654;2023-06-10T06:11:20;11.38;;;10.13;;
26335;SDS011;14047;50.936;4.654;2023-06-10T06:13:46;14.60;;;10.13;;
26335;SDS011;14047;50.936;4.654;2023-06-10T06:16:13;13.13;;;9.90;;
26335;SDS011;14047;50.936;4.654;2023-06-10T06:18:39;16.40;;;10.23;;
26335;SDS011;14047;50.936;4.654;2023-06-10T06:21:05;13.27;;;9.68;;
26335;SDS011;14047;50.936;4.654;2023-06-10T06:23:31;13.98;;;10.07;;
26335;SDS011;14047;50.936;4.654;2023-06-10T06:25:57;13.40;;;10.07;;
26335;SDS011;14047;50.936;4.654;2023-06-10T06:28:23;14.85;;;9.05;;
26335;SDS011;14047;50.936;4.654;2023-06-10T06:30:55;13.20;;;9.60;;
26335;SDS011;14047;50.936;4.654;2023-06-10T06:33:21;14.50;;;8.98;;
26335;SDS011;14047;50.936;4.654;2023-06-10T06:35:47;14.05;;;9.30;;
26335;SDS011;14047;50.936;4.654;2023-06-10T06:38:13;14.85;;;9.05;;
26335;SDS011;14047;50.936;4.654;2023-06-10T06:40:39;12.40;;;9.55;;
26335;SDS011;14047;50.936;4.654;2023-06-10T06:43:05;11.60;;;8.73;;
26335;SDS011;14047;50.936;4.654;2023-06-10T06:45:49;13.60;;;9.88;;
26335;SDS011;14047;50.936;4.654;2023-06-10T06:48:15;16.15;;;9.07;;
26335;SDS011;14047;50.936;4.654;2023-06-10T06:50:41;13.10;;;9.27;;
26335;SDS011;14047;50.936;4.654;2023-06-10T06:53:07;11.50;;;8.93;;
26335;SDS011;14047;50.936;4.654;2023-06-10T06:55:33;11.85;;;9.20;;
26335;SDS011;14047;50.936;4.654;2023-06-10T06:57:59;14.27;;;8.18;;
26335;SDS011;14047;50.936;4.654;2023-06-10T07:00:28;12.80;;;9.02;;
26335;SDS011;14047;50.936;4.654;2023-06-10T07:02:53;12.68;;;9.02;;
26335;SDS011;14047;50.936;4.654;2023-06-10T07:05:20;14.25;;;8.80;;
26335;SDS011;14047;50.936;4.654;2023-06-10T07:07:46;11.90;;;9.07;;
26335;SDS011;14047;50.936;4.654;2023-06-10T07:10:12;12.82;;;8.65;;
26335;SDS011;14047;50.936;4.654;2023-06-10T07:12:40;11.80;;;8.75;;
26335;SDS011;14047;50.936;4.654;2023-06-10T07:15:06;11.32;;;8.00;;
26335;SDS011;14047;50.936;4.654;2023-06-10T07:17:32;10.32;;;8.18;;
26335;SDS011;14047;50.936;4.654;2023-06-10T07:19:59;11.15;;;8.23;;
26335;SDS011;14047;50.936;4.654;2023-06-10T07:22:25;11.05;;;8.60;;
26335;SDS011;14047;50.936;4.654;2023-06-10T07:24:51;12.25;;;8.43;;
26335;SDS011;14047;50.936;4.654;2023-06-10T07:27:20;12.02;;;8.55;;
26335;SDS011;14047;50.936;4.654;2023-06-10T07:29:45;8.55;;;7.65;;
26335;SDS011;14047;50.936;4.654;2023-06-10T07:32:11;14.00;;;8.38;;
26335;SDS011;14047;50.936;4.654;2023-06-10T07:34:37;10.90;;;8.07;;
26335;SDS011;14047;50.936;4.654;2023-06-10T07:37:03;9.48;;;8.48;;
26335;SDS011;14047;50.936;4.654;2023-06-10T07:39:29;9.57;;;8.25;;
26335;SDS011;14047;50.936;4.654;2023-06-10T07:41:55;10.60;;;7.45;;
26335;SDS011;14047;50.936;4.654;2023-06-10T07:44:23;10.90;;;7.85;;
26335;SDS011;14047;50.936;4.654;2023-06-10T07:46:49;12.80;;;7.43;;
26335;SDS011;14047;50.936;4.654;2023-06-10T07:49:15;9.43;;;7.65;;
26335;SDS011;14047;50.936;4.654;2023-06-10T07:51:41;9.02;;;7.68;;
26335;SDS011;14047;50.936;4.654;2023-06-10T07:54:07;9.38;;;7.40;;
26335;SDS011;14047;50.936;4.654;2023-06-10T07:56:33;11.45;;;8.13;;
26335;SDS011;14047;50.936;4.654;2023-06-10T07:58:59;11.23;;;7.80;;
26335;SDS011;14047;50.936;4.654;2023-06-10T08:01:25;10.32;;;7.40;;
26335;SDS011;14047;50.936;4.654;2023-06-10T08:03:51;9.50;;;7.25;;
26335;SDS011;14047;50.936;4.654;2023-06-10T08:06:17;9.07;;;7.38;;
26335;SDS011;14047;50.936;4.654;2023-06-10T08:08:43;9.45;;;7.55;;
26335;SDS011;14047;50.936;4.654;2023-06-10T08:11:11;7.72;;;6.32;;
26335;SDS011;14047;50.936;4.654;2023-06-10T08:13:37;12.85;;;6.95;;
26335;SDS011;14047;50.936;4.654;2023-06-10T08:16:03;12.43;;;6.80;;
26335;SDS011;14047;50.936;4.654;2023-06-10T08:18:29;14.20;;;7.43;;
26335;SDS011;14047;50.936;4.654;2023-06-10T08:20:55;11.27;;;6.25;;
26335;SDS011;14047;50.936;4.654;2023-06-10T08:23:21;11.93;;;7.30;;
26335;SDS011;14047;50.936;4.654;2023-06-10T08:25:47;9.20;;;6.90;;
26335;SDS011;14047;50.936;4.654;2023-06-10T08:28:13;13.90;;;7.05;;
26335;SDS011;14047;50.936;4.654;2023-06-10T08:30:39;9.30;;;6.90;;
26335;SDS011;14047;50.936;4.654;2023-06-10T08:33:05;12.88;;;6.20;;
26335;SDS011;14047;50.936;4.654;2023-06-10T08:35:31;11.57;;;6.13;;
26335;SDS011;14047;50.936;4.654;2023-06-10T08:37:57;9.45;;;5.88;;
26335;SDS011;14047;50.936;4.654;2023-06-10T08:40:23;8.38;;;5.30;;
26335;SDS011;14047;50.936;4.654;2023-06-10T08:42:53;8.73;;;5.80;;
26335;SDS011;14047;50.936;4.654;2023-06-10T08:45:37;6.97;;;5.90;;
26335;SDS011;14047;50.936;4.654;2023-06-10T08:48:03;8.38;;;5.43;;
26335;SDS011;14047;50.936;4.654;2023-06-10T08:50:36;12.32;;;5.55;;
26335;SDS011;14047;50.936;4.654;2023-06-10T08:53:06;10.57;;;6.45;;
26335;SDS011;14047;50.936;4.654;2023-06-10T08:55:35;6.68;;;5.47;;
26335;SDS011;14047;50.936;4.654;2023-06-10T08:58:03;5.60;;;4.68;;
26335;SDS011;14047;50.936;4.654;2023-06-10T09:00:30;8.75;;;5.03;;
26335;SDS011;14047;50.936;4.654;2023-06-10T09:02:57;10.07;;;5.57;;
26335;SDS011;14047;50.936;4.654;2023-06-10T09:05:24;10.57;;;5.07;;
26335;SDS011;14047;50.936;4.654;2023-06-10T09:07:52;11.88;;;5.45;;
26335;SDS011;14047;50.936;4.654;2023-06-10T09:10:19;6.18;;;4.68;;
26335;SDS011;14047;50.936;4.654;2023-06-10T09:12:45;9.95;;;5.32;;
26335;SDS011;14047;50.936;4.654;2023-06-10T09:15:11;9.40;;;4.90;;
26335;SDS011;14047;50.936;4.654;2023-06-10T09:17:38;9.20;;;5.13;;
26335;SDS011;14047;50.936;4.654;2023-06-10T09:20:08;9.27;;;5.38;;
26335;SDS011;14047;50.936;4.654;2023-06-10T09:22:35;9.40;;;5.35;;
26335;SDS011;14047;50.936;4.654;2023-06-10T09:25:03;9.10;;;5.65;;
26335;SDS011;14047;50.936;4.654;2023-06-10T09:30:24;7.50;;;5.43;;
26335;SDS011;14047;50.936;4.654;2023-06-10T09:32:57;6.03;;;4.85;;
26335;SDS011;14047;50.936;4.654;2023-06-10T09:35:26;8.15;;;6.25;;
26335;SDS011;14047;50.936;4.654;2023-06-10T09:38:00;7.28;;;5.57;;
26335;SDS011;14047;50.936;4.654;2023-06-10T09:40:27;9.43;;;5.93;;
26335;SDS011;14047;50.936;4.654;2023-06-10T09:42:55;7.20;;;5.80;;
26335;SDS011;14047;50.936;4.654;2023-06-10T09:45:23;9.38;;;6.28;;
26335;SDS011;14047;50.936;4.654;2023-06-10T09:47:53;8.73;;;5.85;;
26335;SDS011;14047;50.936;4.654;2023-06-10T09:50:19;7.60;;;5.05;;
26335;SDS011;14047;50.936;4.654;2023-06-10T09:52:46;9.32;;;6.00;;
26335;SDS011;14047;50.936;4.654;2023-06-10T09:55:13;8.93;;;5.97;;
26335;SDS011;14047;50.936;4.654;2023-06-10T09:57:39;10.75;;;5.68;;
26335;SDS011;14047;50.936;4.654;2023-06-10T10:00:07;9.95;;;5.43;;
26335;SDS011;14047;50.936;4.654;2023-06-10T10:02:45;7.10;;;6.25;;
26335;SDS011;14047;50.936;4.654;2023-06-10T10:05:12;9.15;;;5.75;;
26335;SDS011;14047;50.936;4.654;2023-06-10T10:07:40;9.10;;;5.80;;
26335;SDS011;14047;50.936;4.654;2023-06-10T10:10:06;9.38;;;5.78;;
26335;SDS011;14047;50.936;4.654;2023-06-10T10:12:34;10.38;;;6.13;;
26335;SDS011;14047;50.936;4.654;2023-06-10T10:15:01;8.88;;;5.60;;
26335;SDS011;14047;50.936;4.654;2023-06-10T10:17:28;8.68;;;5.15;;
26335;SDS011;14047;50.936;4.654;2023-06-10T10:19:57;8.15;;;6.03;;
26335;SDS011;14047;50.936;4.654;2023-06-10T10:22:30;11.40;;;5.40;;
26335;SDS011;14047;50.936;4.654;2023-06-10T10:25:10;6.53;;;5.78;;
26335;SDS011;14047;50.936;4.654;2023-06-10T10:27:43;8.82;;;6.15;;
26335;SDS011;14047;50.936;4.654;2023-06-10T10:30:14;7.28;;;5.40;;
26335;SDS011;14047;50.936;4.654;2023-06-10T10:33:04;10.57;;;5.65;;
26335;SDS011;14047;50.936;4.654;2023-06-10T10:35:33;9.05;;;5.72;;
26335;SDS011;14047;50.936;4.654;2023-06-10T10:38:00;8.75;;;5.55;;
26335;SDS011;14047;50.936;4.654;2023-06-10T10:40:28;8.07;;;5.78;;
26335;SDS011;14047;50.936;4.654;2023-06-10T10:42:55;6.90;;;5.43;;
26335;SDS011;14047;50.936;4.654;2023-06-10T10:45:22;10.45;;;5.63;;
26335;SDS011;14047;50.936;4.654;2023-06-10T10:47:52;6.47;;;5.43;;
26335;SDS011;14047;50.936;4.654;2023-06-10T10:50:19;11.68;;;5.25;;
26335;SDS011;14047;50.936;4.654;2023-06-10T10:52:56;8.10;;;5.10;;
26335;SDS011;14047;50.936;4.654;2023-06-10T10:55:27;5.88;;;5.05;;
26335;SDS011;14047;50.936;4.654;2023-06-10T10:57:54;8.25;;;5.20;;
26335;SDS011;14047;50.936;4.654;2023-06-10T11:00:26;9.65;;;5.10;;
26335;SDS011;14047;50.936;4.654;2023-06-10T11:03:13;8.05;;;5.10;;
26335;SDS011;14047;50.936;4.654;2023-06-10T11:05:42;12.20;;;5.43;;
26335;SDS011;14047;50.936;4.654;2023-06-10T11:08:13;7.20;;;4.75;;
26335;SDS011;14047;50.936;4.654;2023-06-10T11:10:40;6.00;;;4.72;;
26335;SDS011;14047;50.936;4.654;2023-06-10T11:13:13;10.80;;;5.00;;
26335;SDS011;14047;50.936;4.654;2023-06-10T11:15:47;6.28;;;4.88;;
26335;SDS011;14047;50.936;4.654;2023-06-10T11:28:37;13.90;;;5.10;;
26335;SDS011;14047;50.936;4.654;2023-06-10T11:31:03;9.50;;;5.68;;
26335;SDS011;14047;50.936;4.654;2023-06-10T11:33:29;10.35;;;6.00;;
26335;SDS011;14047;50.936;4.654;2023-06-10T11:35:56;14.50;;;5.88;;
26335;SDS011;14047;50.936;4.654;2023-06-10T11:38:23;7.50;;;5.43;;
26335;SDS011;14047;50.936;4.654;2023-06-10T11:40:50;8.48;;;5.55;;
26335;SDS011;14047;50.936;4.654;2023-06-10T11:43:17;11.07;;;5.00;;
26335;SDS011;14047;50.936;4.654;2023-06-10T11:45:43;12.48;;;5.53;;
26335;SDS011;14047;50.936;4.654;2023-06-10T11:48:10;8.93;;;5.03;;
26335;SDS011;14047;50.936;4.654;2023-06-10T11:50:37;6.68;;;5.07;;
26335;SDS011;14047;50.936;4.654;2023-06-10T11:53:04;8.98;;;5.05;;
26335;SDS011;14047;50.936;4.654;2023-06-10T11:55:42;10.48;;;5.25;;
26335;SDS011;14047;50.936;4.654;2023-06-10T12:00:48;7.80;;;5.90;;
26335;SDS011;14047;50.936;4.654;2023-06-10T12:03:16;8.73;;;4.88;;
26335;SDS011;14047;50.936;4.654;2023-06-10T12:05:56;10.68;;;5.15;;
26335;SDS011;14047;50.936;4.654;2023-06-10T12:08:23;6.88;;;5.10;;
26335;SDS011;14047;50.936;4.654;2023-06-10T12:10:49;12.82;;;5.20;;
26335;SDS011;14047;50.936;4.654;2023-06-10T12:13:16;12.43;;;5.03;;
26335;SDS011;14047;50.936;4.654;2023-06-10T12:15:45;5.35;;;4.22;;
26335;SDS011;14047;50.936;4.654;2023-06-10T12:18:21;14.25;;;4.88;;
26335;SDS011;14047;50.936;4.654;2023-06-10T12:20:49;5.13;;;4.38;;
26335;SDS011;14047;50.936;4.654;2023-06-10T12:23:16;12.52;;;5.15;;
26335;SDS011;14047;50.936;4.654;2023-06-10T12:25:50;6.68;;;4.50;;
26335;SDS011;14047;50.936;4.654;2023-06-10T12:28:25;7.53;;;5.03;;
26335;SDS011;14047;50.936;4.654;2023-06-10T12:30:52;5.82;;;4.43;;
26335;SDS011;14047;50.936;4.654;2023-06-10T12:33:33;8.68;;;4.40;;
26335;SDS011;14047;50.936;4.654;2023-06-10T12:35:58;4.95;;;4.43;;
26335;SDS011;14047;50.936;4.654;2023-06-10T12:38:25;5.63;;;4.40;;
26335;SDS011;14047;50.936;4.654;2023-06-10T12:41:02;13.02;;;4.78;;
26335;SDS011;14047;50.936;4.654;2023-06-10T12:43:30;9.02;;;4.68;;
26335;SDS011;14047;50.936;4.654;2023-06-10T12:46:07;8.95;;;4.72;;
26335;SDS011;14047;50.936;4.654;2023-06-10T12:48:37;11.00;;;4.55;;
26335;SDS011;14047;50.936;4.654;2023-06-10T12:51:16;12.98;;;4.70;;
26335;SDS011;14047;50.936;4.654;2023-06-10T12:53:43;9.48;;;4.38;;
26335;SDS011;14047;50.936;4.654;2023-06-10T12:56:09;9.05;;;5.10;;
26335;SDS011;14047;50.936;4.654;2023-06-10T12:58:35;6.72;;;4.45;;
26335;SDS011;14047;50.936;4.654;2023-06-10T13:01:01;7.65;;;4.95;;
26335;SDS011;14047;50.936;4.654;2023-06-10T13:03:27;8.05;;;5.25;;
26335;SDS011;14047;50.936;4.654;2023-06-10T13:05:53;7.35;;;4.90;;
26335;SDS011;14047;50.936;4.654;2023-06-10T13:08:19;6.65;;;4.65;;
26335;SDS011;14047;50.936;4.654;2023-06-10T13:10:45;9.35;;;4.53;;
26335;SDS011;14047;50.936;4.654;2023-06-10T13:13:11;7.50;;;4.43;;
26335;SDS011;14047;50.936;4.654;2023-06-10T13:15:37;9.02;;;4.75;;
26335;SDS011;14047;50.936;4.654;2023-06-10T13:18:03;8.93;;;4.47;;
26335;SDS011;14047;50.936;4.654;2023-06-10T13:20:30;7.38;;;4.70;;
26335;SDS011;14047;50.936;4.654;2023-06-10T13:22:56;6.57;;;4.30;;
26335;SDS011;14047;50.936;4.654;2023-06-10T13:25:22;5.80;;;4.60;;
26335;SDS011;14047;50.936;4.654;2023-06-10T13:27:48;6.82;;;4.95;;
26335;SDS011;14047;50.936;4.654;2023-06-10T13:30:14;7.82;;;4.65;;
26335;SDS011;14047;50.936;4.654;2023-06-10T13:32:40;9.00;;;4.63;;
26335;SDS011;14047;50.936;4.654;2023-06-10T13:35:06;7.07;;;4.93;;
26335;SDS011;14047;50.936;4.654;2023-06-10T13:37:33;6.32;;;4.47;;
26335;SDS011;14047;50.936;4.654;2023-06-10T13:39:59;8.55;;;4.82;;
26335;SDS011;14047;50.936;4.654;2023-06-10T13:42:25;6.18;;;5.07;;
26335;SDS011;14047;50.936;4.654;2023-06-10T13:44:51;10.23;;;4.50;;
26335;SDS011;14047;50.936;4.654;2023-06-10T13:47:17;10.65;;;5.25;;
26335;SDS011;14047;50.936;4.654;2023-06-10T13:49:43;9.85;;;4.95;;
26335;SDS011;14047;50.936;4.654;2023-06-10T13:52:10;8.00;;;4.78;;
26335;SDS011;14047;50.936;4.654;2023-06-10T13:54:36;7.43;;;4.78;;
26335;SDS011;14047;50.936;4.654;2023-06-10T13:57:02;11.88;;;5.03;;
26335;SDS011;14047;50.936;4.654;2023-06-10T13:59:28;8.75;;;5.00;;
26335;SDS011;14047;50.936;4.654;2023-06-10T14:01:54;9.55;;;4.75;;
26335;SDS011;14047;50.936;4.654;2023-06-10T14:04:21;9.07;;;4.82;;
26335;SDS011;14047;50.936;4.654;2023-06-10T14:06:47;5.65;;;4.40;;
26335;SDS011;14047;50.936;4.654;2023-06-10T14:09:13;10.27;;;5.13;;
26335;SDS011;14047;50.936;4.654;2023-06-10T14:11:40;7.93;;;4.50;;
26335;SDS011;14047;50.936;4.654;2023-06-10T14:14:06;8.77;;;4.93;;
26335;SDS011;14047;50.936;4.654;2023-06-10T14:16:32;11.13;;;4.82;;
26335;SDS011;14047;50.936;4.654;2023-06-10T14:18:58;5.63;;;4.35;;
26335;SDS011;14047;50.936;4.654;2023-06-10T14:21:24;7.07;;;4.63;;
26335;SDS011;14047;50.936;4.654;2023-06-10T14:23:50;6.50;;;4.60;;
26335;SDS011;14047;50.936;4.654;2023-06-10T14:26:18;7.10;;;4.70;;
26335;SDS011;14047;50.936;4.654;2023-06-10T14:28:47;6.35;;;4.68;;
26335;SDS011;14047;50.936;4.654;2023-06-10T14:31:13;6.57;;;4.30;;
26335;SDS011;14047;50.936;4.654;2023-06-10T14:33:39;5.95;;;4.32;;
26335;SDS011;14047;50.936;4.654;2023-06-10T14:36:07;8.98;;;4.55;;
26335;SDS011;14047;50.936;4.654;2023-06-10T14:38:33;11.50;;;4.50;;
26335;SDS011;14047;50.936;4.654;2023-06-10T14:40:59;6.30;;;4.32;;
26335;SDS011;14047;50.936;4.654;2023-06-10T14:43:25;7.70;;;4.28;;
26335;SDS011;14047;50.936;4.654;2023-06-10T14:45:51;5.22;;;4.72;;
26335;SDS011;14047;50.936;4.654;2023-06-10T14:48:17;7.43;;;4.45;;
26335;SDS011;14047;50.936;4.654;2023-06-10T14:50:43;6.60;;;4.25;;
26335;SDS011;14047;50.936;4.654;2023-06-10T14:53:12;5.40;;;4.88;;
26335;SDS011;14047;50.936;4.654;2023-06-10T14:55:37;7.95;;;4.57;;
26335;SDS011;14047;50.936;4.654;2023-06-10T14:58:03;5.78;;;4.30;;